Cecil, Alabama
Current Conditions -  °F | °C
As of 6:58 AM on Wednesday 22 Oct 2014 (Local Time) from KMXF Reporting Station
Clear Clear  
Wind Chill: 52°   Ceiling: Unl
Heat Index: 52°   Visibility: 10mi
Dew Point: 48°   Wind: 7mph
Humidity: 89%   Direction: 20°NNE
Pressure: 30.1"   Gusts: NA
Location:  32.3°N, 86.01°W
Report Text: KMXF 221158Z AUTO 02006KT 10SM CLR 11/09 A3010 RMK AO2 SLP195 T01090091 10119 20098 52020
Loading
Personal Weather Stations






























Interactive Weather Map
Tropical Storm Tracking
New forecast layout! Learn more

10-Day Weather Forecast

Advertisements
Track Severe Weather on mobile